createdAt,value
2024-05-09T00:00:43.970Z,15.00
2024-05-09T00:03:12.468Z,15.02
2024-05-09T00:05:44.356Z,14.80
2024-05-09T00:10:41.251Z,15.30
2024-05-09T00:13:10.454Z,15.60
2024-05-09T00:15:38.919Z,14.13
2024-05-09T00:18:09.480Z,15.27
2024-05-09T00:20:40.050Z,15.57
2024-05-09T00:23:12.299Z,14.70
2024-05-09T00:28:08.209Z,14.70
2024-05-09T00:30:37.114Z,15.40
2024-05-09T00:33:07.147Z,15.73
2024-05-09T00:35:36.045Z,16.02
2024-05-09T00:38:04.521Z,15.30
2024-05-09T00:40:40.633Z,14.40
2024-05-09T00:43:13.154Z,14.32
2024-05-09T00:45:41.757Z,15.43
2024-05-09T00:48:12.266Z,15.15
2024-05-09T00:50:42.809Z,14.80
2024-05-09T00:53:15.117Z,14.55
2024-05-09T00:55:43.236Z,14.50
2024-05-09T00:58:12.978Z,14.23
2024-05-09T01:00:41.724Z,14.32
2024-05-09T01:03:12.145Z,14.98
2024-05-09T01:05:41.746Z,14.45
2024-05-09T01:08:10.420Z,15.40
2024-05-09T01:10:38.595Z,14.68
2024-05-09T01:13:07.043Z,15.45
2024-05-09T01:15:35.866Z,14.88
2024-05-09T01:18:13.557Z,14.20
2024-05-09T01:20:44.321Z,14.75
2024-05-09T01:23:15.252Z,15.82
2024-05-09T01:25:45.600Z,14.75
2024-05-09T01:28:13.993Z,15.77
2024-05-09T01:30:41.481Z,16.75
2024-05-09T01:33:10.786Z,16.67
2024-05-09T01:35:42.239Z,16.65
2024-05-09T01:38:13.988Z,15.90
2024-05-09T01:40:41.873Z,16.17
2024-05-09T01:43:10.889Z,17.25
2024-05-09T01:45:42.868Z,16.33
2024-05-09T01:48:11.207Z,16.43
2024-05-09T01:50:42.022Z,16.67
2024-05-09T01:53:15.278Z,16.50
2024-05-09T01:55:43.369Z,17.33
2024-05-09T01:58:11.273Z,17.50
2024-05-09T02:00:42.591Z,17.55
2024-05-09T02:03:15.311Z,17.13
2024-05-09T02:05:50.015Z,16.40
2024-05-09T02:08:22.113Z,15.57
2024-05-09T02:10:50.687Z,16.52
2024-05-09T02:13:18.671Z,16.48
2024-05-09T02:15:46.312Z,16.60
2024-05-09T02:18:14.373Z,17.17
2024-05-09T02:20:43.280Z,15.60
2024-05-09T02:23:11.873Z,14.05
2024-05-09T02:25:39.951Z,13.05
2024-05-09T02:28:07.863Z,13.88
2024-05-09T02:30:39.909Z,12.88
2024-05-09T02:33:11.561Z,11.52
2024-05-09T02:35:41.010Z,10.55
2024-05-09T02:38:10.178Z,11.63
2024-05-09T02:40:39.504Z,12.10
2024-05-09T02:43:09.568Z,11.55
2024-05-09T02:45:38.913Z,11.93
2024-05-09T02:48:07.402Z,11.70
2024-05-09T02:50:39.097Z,12.48
2024-05-09T02:53:08.983Z,11.02
2024-05-09T02:55:40.467Z,11.45
2024-05-09T02:58:08.356Z,11.23
2024-05-09T03:00:39.865Z,10.60
2024-05-09T03:03:12.887Z,10.93
2024-05-09T03:05:46.189Z,11.35
2024-05-09T03:08:14.487Z,11.25
2024-05-09T03:10:42.163Z,11.45
2024-05-09T03:13:15.310Z,11.35
2024-05-09T03:15:45.086Z,10.85
2024-05-09T03:18:13.225Z,11.00
2024-05-09T03:20:41.145Z,11.20
2024-05-09T03:23:09.887Z,11.80
2024-05-09T03:25:38.930Z,11.00
2024-05-09T03:28:07.063Z,10.95
2024-05-09T03:30:40.891Z,11.48
2024-05-09T03:33:15.967Z,9.75
2024-05-09T03:35:44.356Z,9.23
2024-05-09T03:38:11.875Z,8.57
2024-05-09T03:40:48.769Z,8.85
2024-05-09T03:43:17.407Z,8.02
2024-05-09T03:45:45.578Z,8.25
2024-05-09T03:48:13.500Z,8.48
2024-05-09T03:50:41.680Z,8.35
2024-05-09T03:53:13.725Z,7.40
2024-05-09T03:55:41.643Z,7.75
2024-05-09T03:58:09.391Z,7.70
2024-05-09T04:00:39.417Z,7.22
2024-05-09T04:03:10.784Z,6.70
2024-05-09T04:05:41.895Z,6.65
2024-05-09T04:08:11.111Z,7.10
2024-05-09T04:10:39.014Z,7.95
2024-05-09T04:13:06.716Z,6.50
2024-05-09T04:15:34.262Z,6.80
2024-05-09T04:18:02.646Z,7.38
2024-05-09T04:20:38.083Z,7.45
2024-05-09T04:23:11.469Z,7.40
2024-05-09T04:25:42.088Z,7.35
2024-05-09T04:28:09.581Z,6.57
2024-05-09T04:30:40.017Z,6.68
2024-05-09T04:35:42.819Z,6.70
2024-05-09T04:38:11.113Z,5.80
2024-05-09T04:40:38.845Z,6.43
2024-05-09T04:43:07.435Z,5.95
2024-05-09T04:45:35.823Z,6.30
2024-05-09T04:48:03.817Z,6.38
2024-05-09T04:50:36.927Z,6.05
2024-05-09T04:53:11.097Z,5.88
2024-05-09T04:55:40.149Z,5.47
2024-05-09T04:58:12.147Z,5.57
2024-05-09T05:00:41.051Z,5.45
2024-05-09T05:03:13.442Z,5.90
2024-05-09T05:05:45.099Z,6.95
2024-05-09T05:08:14.906Z,6.75
2024-05-09T05:10:43.375Z,5.05
2024-05-09T05:13:21.263Z,4.65
2024-05-09T05:15:52.135Z,3.85
2024-05-09T05:18:20.253Z,3.85
2024-05-09T05:20:48.243Z,4.47
2024-05-09T05:23:18.845Z,4.20
2024-05-09T05:25:48.436Z,3.80
2024-05-09T05:28:16.802Z,2.92
2024-05-09T05:30:44.695Z,3.08
2024-05-09T05:33:16.490Z,3.20
2024-05-09T05:35:44.486Z,3.80
2024-05-09T05:38:12.136Z,6.80
2024-05-09T05:40:40.730Z,2.95
2024-05-09T05:43:10.609Z,1.88
2024-05-09T05:45:39.227Z,2.85
2024-05-09T05:48:07.952Z,3.30
2024-05-09T05:50:37.907Z,2.33
2024-05-09T05:53:10.632Z,2.28
2024-05-09T05:55:40.290Z,1.98
2024-05-09T05:58:11.649Z,2.15
2024-05-09T06:00:41.073Z,1.75
2024-05-09T06:03:10.810Z,2.00
2024-05-09T06:05:44.127Z,1.50
2024-05-09T06:08:12.501Z,1.60
2024-05-09T06:10:41.394Z,1.33
2024-05-09T06:13:13.311Z,1.63
2024-05-09T06:15:42.241Z,2.97
2024-05-09T06:18:11.736Z,1.58
2024-05-09T06:20:43.128Z,1.67
2024-05-09T06:23:11.810Z,1.50
2024-05-09T06:25:39.783Z,1.33
2024-05-09T06:28:07.465Z,1.63
2024-05-09T06:30:40.691Z,1.50
2024-05-09T06:33:12.946Z,1.50
2024-05-09T06:35:42.563Z,1.30
2024-05-09T06:38:10.376Z,1.10
2024-05-09T06:40:43.047Z,2.05
2024-05-09T06:43:17.609Z,0.93
2024-05-09T06:45:50.439Z,1.00
2024-05-09T06:48:20.001Z,1.20
2024-05-09T06:50:48.326Z,0.90
2024-05-09T06:53:17.428Z,1.20
2024-05-09T06:55:45.194Z,1.23
2024-05-09T06:58:12.760Z,1.20
2024-05-09T07:00:41.824Z,1.00
2024-05-09T07:03:12.478Z,1.00
2024-05-09T07:05:41.652Z,1.00
2024-05-09T07:08:09.501Z,1.70
2024-05-09T07:10:39.830Z,1.20
2024-05-09T07:13:11.563Z,1.20
2024-05-09T07:18:10.578Z,1.13
2024-05-09T07:20:39.336Z,1.63
2024-05-09T07:23:10.267Z,1.17
2024-05-09T07:25:38.517Z,1.27
2024-05-09T07:28:06.473Z,1.13
2024-05-09T07:30:35.079Z,1.58
2024-05-09T07:33:04.109Z,1.38
2024-05-09T07:35:31.953Z,1.85
2024-05-09T07:37:59.786Z,1.85
2024-05-09T07:40:34.902Z,1.40
2024-05-09T07:43:05.182Z,1.88
2024-05-09T07:52:23.806Z,1.70
2024-05-09T07:53:39.485Z,1.65
2024-05-09T07:56:11.958Z,1.33
2024-05-09T07:58:40.045Z,1.58
2024-05-09T08:01:07.693Z,1.83
2024-05-09T08:03:38.713Z,1.40
2024-05-09T08:06:06.455Z,1.17
2024-05-09T08:08:35.172Z,1.33
2024-05-09T08:11:03.324Z,1.60
2024-05-09T08:13:31.673Z,1.92
2024-05-09T08:15:59.355Z,1.77
2024-05-09T08:18:27.179Z,2.00
2024-05-09T08:20:54.829Z,2.42
2024-05-09T08:23:24.095Z,1.80
2024-05-09T08:25:53.426Z,2.17
2024-05-09T08:28:21.292Z,1.85
2024-05-09T08:30:49.122Z,2.15
2024-05-09T08:33:16.861Z,2.25
2024-05-09T08:35:44.492Z,1.98
2024-05-09T08:38:12.124Z,2.20
2024-05-09T08:40:39.749Z,1.75
2024-05-09T08:43:12.835Z,1.63
2024-05-09T08:45:44.571Z,1.85
2024-05-09T08:48:15.818Z,1.50
2024-05-09T08:50:45.420Z,2.00
2024-05-09T08:53:15.377Z,1.60
2024-05-09T08:55:44.361Z,1.77
2024-05-09T08:58:20.241Z,1.80
2024-05-09T09:00:48.943Z,1.92
2024-05-09T09:03:23.802Z,2.10
2024-05-09T09:06:06.971Z,3.38
2024-05-09T09:08:34.714Z,2.15
2024-05-09T09:11:02.286Z,2.60
2024-05-09T09:13:29.800Z,2.50
2024-05-09T09:16:00.530Z,1.95
2024-05-09T09:18:29.558Z,2.10
2024-05-09T09:20:57.240Z,2.05
2024-05-09T09:23:24.870Z,2.00
2024-05-09T09:25:52.464Z,1.90
2024-05-09T09:28:23.543Z,2.00
2024-05-09T09:30:51.297Z,2.10
2024-05-09T09:33:19.055Z,2.65
2024-05-09T09:35:47.233Z,2.22
2024-05-09T09:38:18.982Z,2.67
2024-05-09T09:40:50.697Z,2.92
2024-05-09T09:48:20.278Z,2.50
2024-05-09T09:50:48.349Z,2.13
2024-05-09T09:53:17.189Z,1.90
2024-05-09T09:55:47.584Z,1.80
2024-05-09T09:58:17.563Z,2.17
2024-05-09T10:00:45.733Z,2.38
2024-05-09T10:03:13.567Z,1.90
2024-05-09T10:05:44.037Z,1.70
2024-05-09T10:08:14.341Z,1.50
2024-05-09T10:10:46.841Z,1.67
2024-05-09T10:13:14.715Z,1.80
2024-05-09T10:15:46.463Z,2.25
2024-05-09T10:18:15.256Z,1.90
2024-05-09T10:20:46.908Z,1.70
2024-05-09T10:23:27.762Z,1.88
2024-05-09T10:25:59.106Z,1.58
2024-05-09T10:28:35.611Z,1.73
2024-05-09T10:31:12.492Z,1.98
2024-05-09T10:33:41.981Z,1.88
2024-05-09T10:36:19.736Z,1.42
2024-05-09T10:38:47.214Z,1.70
2024-05-09T10:41:14.843Z,1.90
2024-05-09T10:43:42.476Z,1.85
2024-05-09T10:46:12.285Z,1.30
2024-05-09T10:48:41.976Z,1.70
2024-05-09T10:51:09.903Z,1.73
2024-05-09T10:53:44.690Z,1.60
2024-05-09T10:56:14.107Z,1.98
2024-05-09T10:58:41.931Z,1.45
2024-05-09T11:01:10.471Z,1.85
2024-05-09T11:03:39.748Z,1.73
2024-05-09T11:06:08.052Z,1.52
2024-05-09T11:08:36.187Z,1.38
2024-05-09T11:11:08.268Z,1.55
2024-05-09T11:13:37.970Z,1.40
2024-05-09T11:16:07.747Z,1.42
2024-05-09T11:18:39.235Z,1.38
2024-05-09T11:21:13.767Z,1.48
2024-05-09T11:23:41.992Z,1.10
2024-05-09T11:26:11.187Z,1.38
2024-05-09T11:28:38.733Z,1.10
2024-05-09T11:31:10.753Z,1.23
2024-05-09T11:33:48.222Z,1.42
2024-05-09T11:36:16.370Z,1.35
2024-05-09T11:38:44.000Z,1.40
2024-05-09T11:41:17.929Z,1.50
2024-05-09T11:43:45.483Z,1.40
2024-05-09T11:46:13.342Z,1.73
2024-05-09T11:48:41.134Z,1.10
2024-05-09T11:51:08.840Z,1.55
2024-05-09T11:53:36.347Z,1.70
2024-05-09T11:56:04.263Z,1.60
2024-05-09T11:58:37.137Z,1.38
2024-05-09T12:01:04.971Z,1.60
2024-05-09T12:03:32.757Z,1.50
2024-05-09T12:06:00.788Z,1.52
2024-05-09T12:08:28.551Z,1.38
2024-05-09T12:10:56.586Z,1.50
2024-05-09T12:13:24.648Z,1.30
2024-05-09T12:15:52.343Z,1.10
2024-05-09T12:18:19.852Z,1.42
2024-05-09T12:20:47.484Z,1.50
2024-05-09T12:23:15.180Z,1.40
2024-05-09T12:25:42.752Z,1.33
2024-05-09T12:28:10.357Z,1.70
2024-05-09T12:30:41.723Z,1.27
2024-05-09T12:33:14.309Z,1.27
2024-05-09T12:35:44.621Z,1.25
2024-05-09T12:38:17.524Z,1.38
2024-05-09T12:40:45.113Z,1.40
2024-05-09T12:43:12.773Z,1.45
2024-05-09T12:45:40.755Z,1.40
2024-05-09T12:48:12.550Z,1.50
2024-05-09T12:50:41.765Z,1.40
2024-05-09T12:53:09.885Z,1.50
2024-05-09T12:55:45.113Z,1.13
2024-05-09T12:58:22.841Z,1.27
2024-05-09T13:00:52.717Z,1.17
2024-05-09T13:03:20.963Z,1.55
2024-05-09T13:05:50.193Z,1.27
2024-05-09T13:08:17.964Z,1.60
2024-05-09T13:10:45.643Z,1.30
2024-05-09T13:13:13.672Z,1.30
2024-05-09T13:15:41.248Z,1.48
2024-05-09T13:18:09.480Z,11.65
2024-05-09T13:20:37.557Z,7.88
2024-05-09T13:23:07.310Z,6.97
2024-05-09T13:25:36.086Z,13.35
2024-05-09T13:28:04.854Z,1.73
2024-05-09T13:30:39.993Z,3.58
2024-05-09T13:33:11.905Z,5.75
2024-05-09T13:35:46.644Z,3.83
2024-05-09T13:38:17.728Z,1.77
2024-05-09T13:40:45.575Z,4.20
2024-05-09T13:43:13.718Z,2.42
2024-05-09T13:45:41.488Z,3.70
2024-05-09T13:48:10.541Z,9.13
2024-05-09T13:50:38.259Z,2.15
2024-05-09T13:53:07.614Z,1.70
2024-05-09T13:55:39.301Z,7.70
2024-05-09T13:58:08.481Z,2.97
2024-05-09T14:00:44.694Z,8.75
2024-05-09T14:03:18.290Z,5.03
2024-05-09T14:05:47.962Z,1.40
2024-05-09T14:08:18.167Z,1.50
2024-05-09T14:10:49.619Z,2.00
2024-05-09T14:13:17.475Z,1.63
2024-05-09T14:15:46.594Z,6.93
2024-05-09T14:18:14.740Z,10.07
2024-05-09T14:20:43.348Z,2.50
2024-05-09T14:23:10.958Z,2.70
2024-05-09T14:25:42.688Z,2.10
2024-05-09T14:28:12.936Z,1.63
2024-05-09T14:30:41.509Z,2.10
2024-05-09T14:33:09.687Z,1.20
2024-05-09T14:35:38.986Z,2.10
2024-05-09T14:38:07.729Z,1.52
2024-05-09T14:40:41.983Z,2.65
2024-05-09T14:43:15.876Z,2.10
2024-05-09T14:45:44.857Z,1.27
2024-05-09T14:48:15.421Z,1.48
2024-05-09T14:50:43.563Z,2.53
2024-05-09T14:53:12.749Z,1.10
2024-05-09T14:55:42.612Z,1.60
2024-05-09T14:58:11.679Z,1.45
2024-05-09T15:00:47.913Z,2.60
2024-05-09T15:03:19.810Z,3.00
2024-05-09T15:05:48.490Z,2.70
2024-05-09T15:08:18.228Z,1.33
2024-05-09T15:10:46.893Z,2.17
2024-05-09T15:13:16.548Z,1.42
2024-05-09T15:15:44.908Z,2.72
2024-05-09T15:18:13.892Z,2.58
2024-05-09T15:20:42.324Z,2.97
2024-05-09T15:23:10.065Z,2.80
2024-05-09T15:25:37.602Z,6.90
2024-05-09T15:28:08.168Z,4.78
2024-05-09T15:30:36.815Z,6.50
2024-05-09T15:33:06.062Z,3.60
2024-05-09T15:35:34.950Z,2.42
2024-05-09T15:38:03.475Z,2.30
2024-05-09T15:40:38.529Z,2.80
2024-05-09T15:43:10.208Z,3.50
2024-05-09T15:45:40.745Z,2.88
2024-05-09T15:48:09.721Z,3.50
2024-05-09T15:50:40.961Z,2.97
2024-05-09T15:53:12.207Z,4.13
2024-05-09T15:55:40.490Z,2.63
2024-05-09T15:58:08.480Z,3.40
2024-05-09T16:00:40.108Z,4.28
2024-05-09T16:03:14.575Z,4.00
2024-05-09T16:05:46.724Z,1.85
2024-05-09T16:08:15.597Z,4.50
2024-05-09T16:10:46.293Z,3.22
2024-05-09T16:13:15.940Z,2.13
2024-05-09T16:15:44.271Z,2.20
2024-05-09T16:18:12.499Z,1.98
2024-05-09T16:20:42.309Z,2.25
2024-05-09T16:23:11.636Z,2.90
2024-05-09T16:25:45.660Z,2.25
2024-05-09T16:28:13.286Z,2.80
2024-05-09T16:30:41.084Z,2.05
2024-05-09T16:33:09.608Z,3.47
2024-05-09T16:35:40.442Z,1.92
2024-05-09T16:38:08.033Z,2.10
2024-05-09T16:40:39.473Z,2.20
2024-05-09T16:43:14.633Z,2.13
2024-05-09T16:45:45.039Z,2.20
2024-05-09T16:48:14.657Z,2.35
2024-05-09T16:50:42.466Z,2.40
2024-05-09T16:53:10.002Z,2.25
2024-05-09T16:55:37.653Z,2.25
2024-05-09T16:58:07.161Z,1.83
2024-05-09T17:00:41.084Z,2.10
2024-05-09T17:03:13.067Z,2.20
2024-05-09T17:05:42.399Z,2.10
2024-05-09T17:08:10.543Z,5.63
2024-05-09T17:10:38.156Z,6.38
2024-05-09T17:13:07.561Z,4.80
2024-05-09T17:15:37.246Z,2.85
2024-05-09T17:18:07.239Z,2.80
2024-05-09T17:20:37.036Z,3.90
2024-05-09T17:23:13.909Z,2.63
2024-05-09T17:25:42.516Z,2.92
2024-05-09T17:28:11.125Z,3.15
2024-05-09T17:30:40.761Z,2.53
2024-05-09T17:33:10.901Z,3.70
2024-05-09T17:35:39.523Z,2.78
2024-05-09T17:38:07.499Z,2.88
2024-05-09T17:40:37.351Z,3.90
2024-05-09T17:43:09.092Z,5.25
2024-05-09T17:45:39.848Z,4.35
2024-05-09T17:48:10.641Z,5.00
2024-05-09T17:50:39.871Z,3.58
2024-05-09T17:53:08.586Z,3.70
2024-05-09T17:55:36.820Z,3.22
2024-05-09T17:58:05.358Z,2.53
2024-05-09T18:00:39.423Z,3.17
2024-05-09T18:03:13.339Z,3.35
2024-05-09T18:05:43.100Z,3.08
2024-05-09T18:08:11.790Z,3.00
2024-05-09T18:10:41.391Z,2.70
2024-05-09T18:13:10.114Z,4.20
2024-05-09T18:15:38.345Z,4.30
2024-05-09T18:18:06.956Z,3.17
2024-05-09T18:20:42.197Z,4.88
2024-05-09T18:23:15.907Z,4.25
2024-05-09T18:28:12.638Z,4.40
2024-05-09T18:30:40.774Z,6.93
2024-05-09T18:33:11.567Z,8.50
2024-05-09T18:35:41.967Z,6.78
2024-05-09T18:38:10.012Z,6.70
2024-05-09T18:40:39.727Z,5.55
2024-05-09T18:43:09.320Z,4.50
2024-05-09T18:45:38.580Z,4.85
2024-05-09T18:48:08.369Z,4.82
2024-05-09T18:50:40.003Z,4.68
2024-05-09T18:53:11.585Z,4.28
2024-05-09T18:55:40.918Z,3.30
2024-05-09T18:58:08.733Z,3.03
2024-05-09T19:00:39.947Z,3.55
2024-05-09T19:03:13.479Z,3.50
2024-05-09T19:05:45.366Z,4.15
2024-05-09T19:08:21.394Z,4.00
2024-05-09T19:10:50.998Z,4.13
2024-05-09T19:13:19.504Z,4.32
2024-05-09T19:15:48.416Z,5.00
2024-05-09T19:18:17.989Z,4.63
2024-05-09T19:20:46.594Z,4.63
2024-05-09T19:23:14.894Z,5.57
2024-05-09T19:25:43.674Z,4.95
2024-05-09T19:28:13.223Z,4.65
2024-05-09T19:30:42.948Z,5.22
2024-05-09T19:33:13.987Z,4.90
2024-05-09T19:35:43.737Z,6.53
2024-05-09T19:38:12.310Z,7.15
2024-05-09T19:40:40.904Z,7.90
2024-05-09T19:43:10.114Z,8.75
2024-05-09T19:45:38.511Z,9.15
2024-05-09T19:48:07.296Z,9.77
2024-05-09T19:50:42.063Z,10.38
2024-05-09T19:53:13.941Z,9.20
2024-05-09T19:55:43.097Z,8.65
2024-05-09T19:58:13.680Z,8.57
2024-05-09T20:00:43.929Z,9.02
2024-05-09T20:03:15.758Z,9.35
2024-05-09T20:05:46.192Z,7.43
2024-05-09T20:08:14.877Z,8.15
2024-05-09T20:10:43.327Z,6.45
2024-05-09T20:13:11.361Z,7.40
2024-05-09T20:15:40.587Z,6.07
2024-05-09T20:18:09.208Z,5.25
2024-05-09T20:20:41.512Z,6.13
2024-05-09T20:23:15.996Z,5.85
2024-05-09T20:25:44.683Z,4.28
2024-05-09T20:28:14.233Z,4.63
2024-05-09T20:30:43.330Z,4.70
2024-05-09T20:33:12.873Z,4.93
2024-05-09T20:35:41.125Z,4.65
2024-05-09T20:38:09.871Z,5.32
2024-05-09T20:40:39.714Z,4.95
2024-05-09T20:43:11.514Z,4.40
2024-05-09T20:45:40.058Z,4.60
2024-05-09T20:48:09.196Z,4.93
2024-05-09T20:50:40.727Z,4.65
2024-05-09T20:53:14.453Z,5.30
2024-05-09T20:55:44.405Z,6.43
2024-05-09T20:58:12.826Z,5.88
2024-05-09T21:00:43.875Z,5.40
2024-05-09T21:03:16.130Z,6.07
2024-05-09T21:05:44.982Z,6.40
2024-05-09T21:08:12.630Z,5.93
2024-05-09T21:10:40.151Z,4.70
2024-05-09T21:13:08.131Z,5.35
2024-05-09T21:15:36.334Z,5.00
2024-05-09T21:18:05.015Z,5.47
2024-05-09T21:20:35.279Z,5.78
2024-05-09T21:23:03.707Z,6.20
2024-05-09T21:25:31.838Z,5.35
2024-05-09T21:27:59.700Z,5.80
2024-05-09T21:30:33.209Z,5.60
2024-05-09T21:33:10.225Z,5.37
2024-05-09T21:35:39.692Z,5.03
2024-05-09T21:38:08.002Z,6.15
2024-05-09T21:40:37.050Z,5.40
2024-05-09T21:43:07.274Z,5.93
2024-05-09T21:45:35.882Z,6.93
2024-05-09T21:48:04.874Z,6.13
2024-05-09T21:50:39.348Z,5.63
2024-05-09T21:53:09.624Z,6.22
2024-05-09T21:55:37.259Z,6.22
2024-05-09T21:58:05.197Z,7.35
2024-05-09T22:00:37.814Z,6.93
2024-05-09T22:03:11.221Z,6.50
2024-05-09T22:05:42.593Z,7.30
2024-05-09T22:08:10.151Z,7.03
2024-05-09T22:10:37.709Z,6.85
2024-05-09T22:13:06.902Z,7.07
2024-05-09T22:15:37.414Z,6.32
2024-05-09T22:18:06.651Z,6.50
2024-05-09T22:20:38.704Z,6.70
2024-05-09T22:23:08.606Z,7.43
2024-05-09T22:25:37.297Z,6.80
2024-05-09T22:28:05.549Z,7.13
2024-05-09T22:30:37.347Z,8.02
2024-05-09T22:33:09.329Z,7.55
2024-05-09T22:35:38.271Z,7.87
2024-05-09T22:38:06.167Z,7.35
2024-05-09T22:40:43.228Z,7.20
2024-05-09T22:43:24.203Z,7.30
2024-05-09T22:45:55.930Z,7.20
2024-05-09T22:48:24.868Z,7.93
2024-05-09T22:50:53.710Z,8.32
2024-05-09T22:53:25.527Z,9.80
2024-05-09T22:55:53.494Z,9.18
2024-05-09T22:58:21.771Z,9.70
2024-05-09T23:00:49.493Z,10.75
2024-05-09T23:03:19.006Z,9.73
2024-05-09T23:05:46.621Z,9.45
2024-05-09T23:08:14.161Z,9.70
2024-05-09T23:10:41.782Z,7.90
2024-05-09T23:13:09.419Z,7.63
2024-05-09T23:15:38.922Z,7.00
2024-05-09T23:18:07.313Z,7.28
2024-05-09T23:20:38.574Z,7.15
2024-05-09T23:23:11.854Z,6.80
2024-05-09T23:25:41.983Z,7.72
2024-05-09T23:28:10.596Z,6.97
2024-05-09T23:30:40.423Z,5.97
2024-05-09T23:33:13.595Z,6.38
2024-05-09T23:35:42.396Z,5.75
2024-05-09T23:38:09.920Z,5.53
2024-05-09T23:40:40.188Z,4.80
2024-05-09T23:43:13.185Z,4.68
2024-05-09T23:45:41.665Z,5.40
2024-05-09T23:48:10.164Z,6.03
2024-05-09T23:50:39.583Z,6.05
2024-05-09T23:53:09.372Z,5.38
2024-05-09T23:55:38.208Z,4.75
2024-05-09T23:58:06.720Z,4.75
